sensor_id;sensor_type;location;lat;lon;timestamp;pressure;altitude;pressure_sealevel;temperature;humidity
11643;BME280;5877;50.930;6.918;2022-09-13T11:47:01;100319.56;;;30.03;33.28
11643;BME280;5877;50.930;6.918;2022-09-13T11:49:51;100303.84;;;30.09;32.47
11643;BME280;5877;50.930;6.918;2022-09-13T11:55:30;100260.53;;;29.78;32.96
11643;BME280;5877;50.930;6.918;2022-09-13T11:58:01;100201.22;;;29.41;32.36
11643;BME280;5877;50.930;6.918;2022-09-13T12:00:50;100189.47;;;28.77;33.46
11643;BME280;5877;50.930;6.918;2022-09-13T12:03:23;100328.88;;;29.75;33.12
11643;BME280;5877;50.930;6.918;2022-09-13T12:06:10;100339.81;;;29.50;33.44
11643;BME280;5877;50.930;6.918;2022-09-13T12:08:47;100270.38;;;28.98;33.58
11643;BME280;5877;50.930;6.918;2022-09-13T12:11:33;100272.75;;;29.00;34.12
11643;BME280;5877;50.930;6.918;2022-09-13T12:14:09;100112.22;;;27.44;33.88
11643;BME280;5877;50.930;6.918;2022-09-13T12:16:40;100275.34;;;28.44;35.10
11643;BME280;5877;50.930;6.918;2022-09-13T12:22:26;100117.75;;;27.60;34.74
11643;BME280;5877;50.930;6.918;2022-09-13T12:24:59;100122.25;;;27.68;34.50
11643;BME280;5877;50.930;6.918;2022-09-13T12:28:02;100306.31;;;28.87;34.18
11643;BME280;5877;50.930;6.918;2022-09-13T12:30:46;100268.38;;;28.31;34.92
11643;BME280;5877;50.930;6.918;2022-09-13T12:33:14;100295.25;;;28.52;34.97
11643;BME280;5877;50.930;6.918;2022-09-13T12:41:51;100291.75;;;28.15;35.82
11643;BME280;5877;50.930;6.918;2022-09-13T12:44:39;100222.47;;;27.70;35.25
11643;BME280;5877;50.930;6.918;2022-09-13T12:47:29;100223.69;;;27.60;36.19
11643;BME280;5877;50.930;6.918;2022-09-13T12:53:23;100282.31;;;28.21;35.86
11643;BME280;5877;50.930;6.918;2022-09-13T12:56:43;100239.00;;;28.17;35.56
11643;BME280;5877;50.930;6.918;2022-09-13T13:01:35;100289.00;;;28.75;35.09
11643;BME280;5877;50.930;6.918;2022-09-13T13:04:09;100278.88;;;28.72;34.78
11643;BME280;5877;50.930;6.918;2022-09-13T13:06:49;100191.00;;;28.23;35.06
11643;BME280;5877;50.930;6.918;2022-09-13T13:09:22;100267.94;;;28.81;34.40
11643;BME280;5877;50.930;6.918;2022-09-13T13:11:55;100272.69;;;28.84;34.69
11643;BME280;5877;50.930;6.918;2022-09-13T13:14:44;100278.72;;;28.93;34.35
11643;BME280;5877;50.930;6.918;2022-09-13T13:20:37;100208.31;;;28.34;34.03
11643;BME280;5877;50.930;6.918;2022-09-13T13:22:48;100270.25;;;28.55;34.12
11643;BME280;5877;50.930;6.918;2022-09-13T13:25:36;100268.81;;;28.21;35.18
11643;BME280;5877;50.930;6.918;2022-09-13T13:34:38;100131.13;;;26.78;36.35
11643;BME280;5877;50.930;6.918;2022-09-13T13:42:09;100143.66;;;26.95;36.49
11643;BME280;5877;50.930;6.918;2022-09-13T13:57:27;100046.28;;;27.29;35.12
11643;BME280;5877;50.930;6.918;2022-09-13T14:05:48;100248.09;;;29.45;34.11
11643;BME280;5877;50.930;6.918;2022-09-13T14:19:30;100096.50;;;28.35;34.14
11643;BME280;5877;50.930;6.918;2022-09-13T14:24:44;100173.16;;;28.86;33.87
11643;BME280;5877;50.930;6.918;2022-09-13T14:27:25;100151.28;;;28.63;34.56
11643;BME280;5877;50.930;6.918;2022-09-13T14:29:56;99660.16;;;25.47;34.27
11643;BME280;5877;50.930;6.918;2022-09-13T14:32:28;100204.88;;;29.17;33.89
11643;BME280;5877;50.930;6.918;2022-09-13T14:35:28;100171.03;;;29.07;34.49
11643;BME280;5877;50.930;6.918;2022-09-13T14:38:10;100134.91;;;29.00;33.95
11643;BME280;5877;50.930;6.918;2022-09-13T14:40:37;100230.59;;;29.70;33.17
11643;BME280;5877;50.930;6.918;2022-09-13T14:43:21;100218.28;;;29.73;33.39
11643;BME280;5877;50.930;6.918;2022-09-13T14:46:23;100160.59;;;29.37;33.24
11643;BME280;5877;50.930;6.918;2022-09-13T14:49:01;100033.34;;;28.24;33.90
11643;BME280;5877;50.930;6.918;2022-09-13T14:57:01;100120.53;;;29.27;33.86
11643;BME280;5877;50.930;6.918;2022-09-13T14:59:36;100192.25;;;29.84;33.71
11643;BME280;5877;50.930;6.918;2022-09-13T15:02:25;100114.78;;;29.13;34.10
11643;BME280;5877;50.930;6.918;2022-09-13T15:04:55;99994.16;;;28.02;34.17
11643;BME280;5877;50.930;6.918;2022-09-13T15:07:30;100222.47;;;29.11;35.28
11643;BME280;5877;50.930;6.918;2022-09-13T15:12:33;100109.38;;;28.01;35.50
11643;BME280;5877;50.930;6.918;2022-09-13T15:20:19;100044.81;;;27.07;36.95
11643;BME280;5877;50.930;6.918;2022-09-13T15:22:48;100210.13;;;28.05;36.69
11643;BME280;5877;50.930;6.918;2022-09-13T15:25:26;100175.34;;;27.55;37.49
11643;BME280;5877;50.930;6.918;2022-09-13T15:27:55;100213.50;;;27.78;37.36
11643;BME280;5877;50.930;6.918;2022-09-13T15:30:31;100128.91;;;27.13;37.68
11643;BME280;5877;50.930;6.918;2022-09-13T15:35:44;100059.56;;;26.44;38.51
11643;BME280;5877;50.930;6.918;2022-09-13T15:41:00;100229.09;;;27.27;38.72
11643;BME280;5877;50.930;6.918;2022-09-13T15:43:28;100196.88;;;26.98;39.32
11643;BME280;5877;50.930;6.918;2022-09-13T15:45:56;100067.63;;;26.02;40.11
11643;BME280;5877;50.930;6.918;2022-09-13T15:48:33;100233.81;;;26.97;39.87
11643;BME280;5877;50.930;6.918;2022-09-13T15:51:11;100201.28;;;26.61;41.25
11643;BME280;5877;50.930;6.918;2022-09-13T15:53:40;100142.38;;;26.17;42.40
11643;BME280;5877;50.930;6.918;2022-09-13T15:56:11;100229.59;;;26.67;42.62
11643;BME280;5877;50.930;6.918;2022-09-13T15:58:38;100236.03;;;26.53;43.17
11643;BME280;5877;50.930;6.918;2022-09-13T16:01:05;100086.59;;;25.55;43.05
11643;BME280;5877;50.930;6.918;2022-09-13T16:03:32;99967.34;;;24.63;42.67
11643;BME280;5877;50.930;6.918;2022-09-13T16:05:59;100206.53;;;26.07;42.56
11643;BME280;5877;50.930;6.918;2022-09-13T16:08:25;100164.34;;;25.61;43.15
11643;BME280;5877;50.930;6.918;2022-09-13T16:10:52;100144.78;;;25.51;43.41
11643;BME280;5877;50.930;6.918;2022-09-13T16:13:19;100226.22;;;25.99;43.36
11643;BME280;5877;50.930;6.918;2022-09-13T16:15:45;100196.94;;;25.68;43.50
11643;BME280;5877;50.930;6.918;2022-09-13T16:18:13;100142.03;;;25.22;43.39
11643;BME280;5877;50.930;6.918;2022-09-13T16:20:42;100172.81;;;25.42;43.35
11643;BME280;5877;50.930;6.918;2022-09-13T16:23:09;100145.56;;;25.05;43.77
11643;BME280;5877;50.930;6.918;2022-09-13T16:25:37;100226.19;;;25.61;44.00
11643;BME280;5877;50.930;6.918;2022-09-13T16:28:05;100230.16;;;25.54;44.40
11643;BME280;5877;50.930;6.918;2022-09-13T16:30:32;100169.41;;;25.07;45.11
11643;BME280;5877;50.930;6.918;2022-09-13T16:32:59;100227.34;;;25.42;45.02
11643;BME280;5877;50.930;6.918;2022-09-13T16:35:29;100178.28;;;24.99;45.52
11643;BME280;5877;50.930;6.918;2022-09-13T16:37:56;100041.09;;;24.05;44.90
11643;BME280;5877;50.930;6.918;2022-09-13T16:40:22;100080.53;;;24.22;45.36
11643;BME280;5877;50.930;6.918;2022-09-13T16:42:50;100092.22;;;24.17;45.40
11643;BME280;5877;50.930;6.918;2022-09-13T16:45:17;100234.50;;;25.04;47.68
11643;BME280;5877;50.930;6.918;2022-09-13T16:47:43;99979.97;;;23.24;48.53
11643;BME280;5877;50.930;6.918;2022-09-13T16:50:10;100139.28;;;24.32;50.03
11643;BME280;5877;50.930;6.918;2022-09-13T16:52:37;100234.00;;;24.76;50.36
11643;BME280;5877;50.930;6.918;2022-09-13T16:55:04;100098.75;;;23.68;50.27
11643;BME280;5877;50.930;6.918;2022-09-13T16:57:31;100166.03;;;24.06;51.04
11643;BME280;5877;50.930;6.918;2022-09-13T16:59:59;100101.72;;;23.58;52.47
11643;BME280;5877;50.930;6.918;2022-09-13T17:02:26;100257.78;;;24.34;53.32
11643;BME280;5877;50.930;6.918;2022-09-13T17:04:56;100242.72;;;24.24;53.19
11643;BME280;5877;50.930;6.918;2022-09-13T17:07:22;100254.69;;;24.10;53.96
11643;BME280;5877;50.930;6.918;2022-09-13T17:09:49;100251.78;;;23.98;54.36
11643;BME280;5877;50.930;6.918;2022-09-13T17:12:16;99900.31;;;21.53;54.68
11643;BME280;5877;50.930;6.918;2022-09-13T17:14:43;100064.41;;;22.46;54.98
11643;BME280;5877;50.930;6.918;2022-09-13T17:17:14;100227.50;;;23.41;55.19
11643;BME280;5877;50.930;6.918;2022-09-13T17:19:45;100049.06;;;22.16;55.22
11643;BME280;5877;50.930;6.918;2022-09-13T17:22:12;100128.19;;;22.53;55.78
11643;BME280;5877;50.930;6.918;2022-09-13T17:24:39;100161.69;;;22.73;56.24
11643;BME280;5877;50.930;6.918;2022-09-13T17:27:07;100255.78;;;23.24;56.61
11643;BME280;5877;50.930;6.918;2022-09-13T17:29:34;100232.13;;;22.95;56.84
11643;BME280;5877;50.930;6.918;2022-09-13T17:32:03;100151.78;;;22.37;57.21
11643;BME280;5877;50.930;6.918;2022-09-13T17:34:31;100263.03;;;23.02;57.26
11643;BME280;5877;50.930;6.918;2022-09-13T17:37:00;100171.63;;;22.22;57.19
11643;BME280;5877;50.930;6.918;2022-09-13T17:39:29;100217.84;;;22.37;57.99
11643;BME280;5877;50.930;6.918;2022-09-13T17:41:56;100213.59;;;22.35;57.78
11643;BME280;5877;50.930;6.918;2022-09-13T17:44:23;100217.28;;;22.26;58.61
11643;BME280;5877;50.930;6.918;2022-09-13T17:46:50;100268.84;;;22.54;58.66
11643;BME280;5877;50.930;6.918;2022-09-13T17:49:17;100199.16;;;21.95;60.01
11643;BME280;5877;50.930;6.918;2022-09-13T17:51:44;100236.00;;;22.12;61.05
11643;BME280;5877;50.930;6.918;2022-09-13T17:54:11;100273.44;;;22.26;61.28
11643;BME280;5877;50.930;6.918;2022-09-13T17:56:41;100173.28;;;21.50;62.51
11643;BME280;5877;50.930;6.918;2022-09-13T17:59:21;99582.09;;;17.57;62.96
11643;BME280;5877;50.930;6.918;2022-09-13T18:01:50;100160.31;;;21.11;63.58
11643;BME280;5877;50.930;6.918;2022-09-13T18:04:22;100259.28;;;21.65;64.74
11643;BME280;5877;50.930;6.918;2022-09-13T18:06:50;100173.31;;;20.98;65.17
11643;BME280;5877;50.930;6.918;2022-09-13T18:09:18;100078.09;;;20.29;65.54
11643;BME280;5877;50.930;6.918;2022-09-13T18:11:45;100158.88;;;20.67;66.03
11643;BME280;5877;50.930;6.918;2022-09-13T18:14:14;100213.56;;;21.02;65.89
11643;BME280;5877;50.930;6.918;2022-09-13T18:16:42;100272.91;;;21.31;66.63
11643;BME280;5877;50.930;6.918;2022-09-13T18:19:09;100280.22;;;21.26;66.97
11643;BME280;5877;50.930;6.918;2022-09-13T18:21:37;100073.22;;;19.74;67.13
11643;BME280;5877;50.930;6.918;2022-09-13T18:24:04;100153.00;;;20.27;67.90
11643;BME280;5877;50.930;6.918;2022-09-13T18:26:32;100190.72;;;20.39;68.33
11643;BME280;5877;50.930;6.918;2022-09-13T18:29:02;100029.84;;;19.26;69.10
11643;BME280;5877;50.930;6.918;2022-09-13T18:31:30;100080.41;;;19.50;69.28
11643;BME280;5877;50.930;6.918;2022-09-13T18:34:00;100292.91;;;20.78;70.06
11643;BME280;5877;50.930;6.918;2022-09-13T18:36:28;100247.53;;;20.35;70.19
11643;BME280;5877;50.930;6.918;2022-09-13T18:38:55;100292.59;;;20.60;71.32
11643;BME280;5877;50.930;6.918;2022-09-13T18:41:28;100257.19;;;20.31;71.40
11643;BME280;5877;50.930;6.918;2022-09-13T18:43:55;100235.66;;;20.03;72.20
11643;BME280;5877;50.930;6.918;2022-09-13T18:46:24;100169.38;;;19.44;72.02
11643;BME280;5877;50.930;6.918;2022-09-13T18:48:53;100220.44;;;19.80;73.16
11643;BME280;5877;50.930;6.918;2022-09-13T18:51:23;100204.66;;;19.60;72.80
11643;BME280;5877;50.930;6.918;2022-09-13T18:53:50;100282.25;;;20.06;73.31
11643;BME280;5877;50.930;6.918;2022-09-13T18:56:19;100175.59;;;19.34;73.25
11643;BME280;5877;50.930;6.918;2022-09-13T18:58:47;100023.47;;;18.35;73.11
11643;BME280;5877;50.930;6.918;2022-09-13T19:01:15;100275.91;;;20.02;74.04
11643;BME280;5877;50.930;6.918;2022-09-13T19:03:54;100274.88;;;19.98;74.03
11643;BME280;5877;50.930;6.918;2022-09-13T19:06:24;100279.78;;;19.86;74.80
11643;BME280;5877;50.930;6.918;2022-09-13T19:08:52;100046.31;;;18.36;74.65
11643;BME280;5877;50.930;6.918;2022-09-13T19:11:21;100234.97;;;19.64;74.68
11643;BME280;5877;50.930;6.918;2022-09-13T19:16:44;100178.91;;;19.21;74.49
11643;BME280;5877;50.930;6.918;2022-09-13T19:19:13;100287.25;;;19.84;74.77
11643;BME280;5877;50.930;6.918;2022-09-13T19:21:40;100269.13;;;19.86;75.17
11643;BME280;5877;50.930;6.918;2022-09-13T19:24:08;100136.75;;;19.04;74.71
11643;BME280;5877;50.930;6.918;2022-09-13T19:26:44;100202.91;;;19.45;75.07
11643;BME280;5877;50.930;6.918;2022-09-13T19:29:13;100187.81;;;19.35;75.25
11643;BME280;5877;50.930;6.918;2022-09-13T19:31:43;100214.28;;;19.56;75.68
11643;BME280;5877;50.930;6.918;2022-09-13T19:34:10;100153.63;;;19.19;75.65
11643;BME280;5877;50.930;6.918;2022-09-13T19:36:38;100243.34;;;19.81;75.77
11643;BME280;5877;50.930;6.918;2022-09-13T19:39:06;100166.63;;;19.25;75.66
11643;BME280;5877;50.930;6.918;2022-09-13T19:41:33;100180.88;;;19.39;75.44
11643;BME280;5877;50.930;6.918;2022-09-13T19:44:00;100070.06;;;18.62;75.78
11643;BME280;5877;50.930;6.918;2022-09-13T19:46:30;100225.88;;;19.70;75.50
11643;BME280;5877;50.930;6.918;2022-09-13T19:48:58;100192.13;;;19.31;75.65
11643;BME280;5877;50.930;6.918;2022-09-13T19:51:34;100103.75;;;18.71;75.40
11643;BME280;5877;50.930;6.918;2022-09-13T19:54:02;100252.25;;;19.66;76.48
11643;BME280;5877;50.930;6.918;2022-09-13T19:56:34;100064.84;;;18.46;77.15
11643;BME280;5877;50.930;6.918;2022-09-13T19:59:02;100249.69;;;19.56;77.06
11643;BME280;5877;50.930;6.918;2022-09-13T20:01:31;100209.13;;;19.35;77.20
11643;BME280;5877;50.930;6.918;2022-09-13T20:04:02;100111.78;;;18.66;76.32
11643;BME280;5877;50.930;6.918;2022-09-13T20:06:35;100210.47;;;19.33;76.51
11643;BME280;5877;50.930;6.918;2022-09-13T20:09:04;100240.69;;;19.52;76.95
11643;BME280;5877;50.930;6.918;2022-09-13T20:11:31;100071.84;;;18.32;76.99
11643;BME280;5877;50.930;6.918;2022-09-13T20:13:59;100215.94;;;19.12;76.92
11643;BME280;5877;50.930;6.918;2022-09-13T20:16:34;100261.09;;;19.23;77.15
11643;BME280;5877;50.930;6.918;2022-09-13T20:19:01;100254.22;;;19.17;77.71
11643;BME280;5877;50.930;6.918;2022-09-13T20:21:49;100254.00;;;19.13;77.98
11643;BME280;5877;50.930;6.918;2022-09-13T20:24:16;100254.31;;;19.06;78.24
11643;BME280;5877;50.930;6.918;2022-09-13T20:26:44;100186.75;;;18.58;78.45
11643;BME280;5877;50.930;6.918;2022-09-13T20:29:11;100078.75;;;17.89;78.93
11643;BME280;5877;50.930;6.918;2022-09-13T20:31:40;100150.94;;;18.45;79.41
11643;BME280;5877;50.930;6.918;2022-09-13T20:34:07;100242.63;;;19.02;79.50
11643;BME280;5877;50.930;6.918;2022-09-13T20:36:36;100244.50;;;19.02;79.85
11643;BME280;5877;50.930;6.918;2022-09-13T20:39:05;100072.69;;;17.78;79.56
11643;BME280;5877;50.930;6.918;2022-09-13T20:41:33;100250.88;;;19.01;79.92
11643;BME280;5877;50.930;6.918;2022-09-13T20:44:00;100226.84;;;18.72;79.82
11643;BME280;5877;50.930;6.918;2022-09-13T20:46:30;100262.41;;;18.86;80.03
11643;BME280;5877;50.930;6.918;2022-09-13T20:48:57;100263.47;;;18.85;80.14
11643;BME280;5877;50.930;6.918;2022-09-13T20:51:24;100227.97;;;18.61;80.25
11643;BME280;5877;50.930;6.918;2022-09-13T20:53:54;100257.66;;;18.78;80.57
11643;BME280;5877;50.930;6.918;2022-09-13T20:56:23;100165.13;;;18.26;80.26
11643;BME280;5877;50.930;6.918;2022-09-13T20:58:52;100246.44;;;18.86;80.31
11643;BME280;5877;50.930;6.918;2022-09-13T21:01:23;100239.81;;;18.84;80.35
11643;BME280;5877;50.930;6.918;2022-09-13T21:03:53;99987.97;;;17.23;80.34
11643;BME280;5877;50.930;6.918;2022-09-13T21:06:23;100130.72;;;18.05;81.02
11643;BME280;5877;50.930;6.918;2022-09-13T21:08:51;100245.94;;;18.84;80.89
11643;BME280;5877;50.930;6.918;2022-09-13T21:11:26;100161.69;;;18.25;80.81
11643;BME280;5877;50.930;6.918;2022-09-13T21:14:07;99807.50;;;15.99;80.86
11643;BME280;5877;50.930;6.918;2022-09-13T21:16:39;100140.94;;;18.27;81.13
11643;BME280;5877;50.930;6.918;2022-09-13T21:19:10;100246.94;;;18.93;81.27
11643;BME280;5877;50.930;6.918;2022-09-13T21:21:39;100243.22;;;18.94;80.98
11643;BME280;5877;50.930;6.918;2022-09-13T21:24:09;100239.22;;;18.92;81.87
11643;BME280;5877;50.930;6.918;2022-09-13T21:26:39;100242.66;;;18.97;81.34
11643;BME280;5877;50.930;6.918;2022-09-13T21:29:09;100248.22;;;19.01;81.24
11643;BME280;5877;50.930;6.918;2022-09-13T21:31:37;100187.28;;;18.65;81.26
11643;BME280;5877;50.930;6.918;2022-09-13T21:34:12;100245.31;;;18.97;81.51
11643;BME280;5877;50.930;6.918;2022-09-13T21:36:41;100238.13;;;18.98;81.47
11643;BME280;5877;50.930;6.918;2022-09-13T21:39:08;100153.66;;;18.35;81.06
11643;BME280;5877;50.930;6.918;2022-09-13T21:41:36;100065.25;;;17.80;81.03
11643;BME280;5877;50.930;6.918;2022-09-13T21:44:03;100227.84;;;18.86;81.21
11643;BME280;5877;50.930;6.918;2022-09-13T21:46:32;100145.22;;;18.23;81.01
11643;BME280;5877;50.930;6.918;2022-09-13T21:49:02;100184.16;;;18.48;81.43
11643;BME280;5877;50.930;6.918;2022-09-13T21:51:31;100201.63;;;18.59;81.52
11643;BME280;5877;50.930;6.918;2022-09-13T21:54:00;100228.41;;;18.78;81.64
11643;BME280;5877;50.930;6.918;2022-09-13T21:56:29;100240.13;;;18.77;81.80
11643;BME280;5877;50.930;6.918;2022-09-13T21:58:58;100023.97;;;17.44;81.92
11643;BME280;5877;50.930;6.918;2022-09-13T22:01:33;100219.59;;;18.83;82.19
11643;BME280;5877;50.930;6.918;2022-09-13T22:04:01;99949.28;;;17.11;82.34
11643;BME280;5877;50.930;6.918;2022-09-13T22:06:28;100102.31;;;18.01;82.40
11643;BME280;5877;50.930;6.918;2022-09-13T22:09:03;100138.84;;;18.24;82.49
11643;BME280;5877;50.930;6.918;2022-09-13T22:11:35;100232.66;;;18.79;82.60
11643;BME280;5877;50.930;6.918;2022-09-13T22:14:06;100015.50;;;17.37;82.12
11643;BME280;5877;50.930;6.918;2022-09-13T22:16:37;100221.03;;;18.65;82.66
11643;BME280;5877;50.930;6.918;2022-09-13T22:21:44;100059.50;;;17.48;83.58
11643;BME280;5877;50.930;6.918;2022-09-13T22:24:17;100251.63;;;18.57;83.68
11643;BME280;5877;50.930;6.918;2022-09-13T22:26:45;100232.78;;;18.48;83.69
11643;BME280;5877;50.930;6.918;2022-09-13T22:29:12;100221.66;;;18.41;83.89
11643;BME280;5877;50.930;6.918;2022-09-13T22:31:43;100250.31;;;18.55;83.31
11643;BME280;5877;50.930;6.918;2022-09-13T22:34:15;100239.41;;;18.56;83.28
11643;BME280;5877;50.930;6.918;2022-09-13T22:36:43;100240.22;;;18.52;83.28
11643;BME280;5877;50.930;6.918;2022-09-13T22:39:11;100151.72;;;18.02;83.60
11643;BME280;5877;50.930;6.918;2022-09-13T22:41:39;100221.06;;;18.55;83.46
11643;BME280;5877;50.930;6.918;2022-09-13T22:44:06;100118.31;;;17.91;82.55
11643;BME280;5877;50.930;6.918;2022-09-13T22:46:36;100148.50;;;18.10;81.93
11643;BME280;5877;50.930;6.918;2022-09-13T22:49:04;100156.97;;;18.17;82.18
11643;BME280;5877;50.930;6.918;2022-09-13T22:51:32;100121.50;;;17.88;82.21
11643;BME280;5877;50.930;6.918;2022-09-13T22:53:59;100207.88;;;18.34;82.66
11643;BME280;5877;50.930;6.918;2022-09-13T22:56:33;100199.34;;;18.37;82.62
11643;BME280;5877;50.930;6.918;2022-09-13T22:59:08;99660.19;;;14.82;82.21
11643;BME280;5877;50.930;6.918;2022-09-13T23:01:36;100030.69;;;17.16;82.72
11643;BME280;5877;50.930;6.918;2022-09-13T23:04:04;99997.56;;;16.98;82.77
11643;BME280;5877;50.930;6.918;2022-09-13T23:06:31;100103.25;;;17.71;83.20
11643;BME280;5877;50.930;6.918;2022-09-13T23:08:59;100199.41;;;18.27;83.33
11643;BME280;5877;50.930;6.918;2022-09-13T23:11:29;100023.81;;;17.05;83.00
11643;BME280;5877;50.930;6.918;2022-09-13T23:13:59;100186.13;;;18.27;83.21
11643;BME280;5877;50.930;6.918;2022-09-13T23:16:30;100053.41;;;17.42;83.50
11643;BME280;5877;50.930;6.918;2022-09-13T23:18:58;100176.31;;;18.23;83.15
11643;BME280;5877;50.930;6.918;2022-09-13T23:21:28;100115.41;;;17.87;83.19
11643;BME280;5877;50.930;6.918;2022-09-13T23:23:56;100104.81;;;17.82;83.13
11643;BME280;5877;50.930;6.918;2022-09-13T23:26:23;100068.25;;;17.53;83.68
11643;BME280;5877;50.930;6.918;2022-09-13T23:28:55;100165.72;;;18.17;83.67
11643;BME280;5877;50.930;6.918;2022-09-13T23:31:27;99989.09;;;17.01;83.82
11643;BME280;5877;50.930;6.918;2022-09-13T23:33:57;100167.34;;;18.13;83.75
11643;BME280;5877;50.930;6.918;2022-09-13T23:36:28;100183.81;;;18.10;83.66
11643;BME280;5877;50.930;6.918;2022-09-13T23:38:57;100097.75;;;17.37;84.15
11643;BME280;5877;50.930;6.918;2022-09-13T23:41:25;100127.94;;;17.71;84.24
11643;BME280;5877;50.930;6.918;2022-09-13T23:43:52;100193.09;;;18.13;84.46
11643;BME280;5877;50.930;6.918;2022-09-13T23:46:19;100042.59;;;17.24;84.26
11643;BME280;5877;50.930;6.918;2022-09-13T23:48:47;100168.38;;;18.17;84.21
11643;BME280;5877;50.930;6.918;2022-09-13T23:51:19;100161.50;;;18.16;83.58
11643;BME280;5877;50.930;6.918;2022-09-13T23:53:46;99936.94;;;16.71;83.00
11643;BME280;5877;50.930;6.918;2022-09-13T23:56:13;99745.63;;;15.39;83.57
11643;BME280;5877;50.930;6.918;2022-09-13T23:58:40;100145.06;;;18.09;84.19
